sensor_id;sensor_type;location;lat;lon;timestamp;pressure;altitude;pressure_sealevel;temperature;humidity
36386;BME280;24125;47.482;8.770;2023-07-20T00:01:51;96193.94;;;23.04;83.15
36386;BME280;24125;47.482;8.770;2023-07-20T00:04:24;96197.44;;;23.04;83.04
36386;BME280;24125;47.482;8.770;2023-07-20T00:06:57;96191.63;;;23.02;83.16
36386;BME280;24125;47.482;8.770;2023-07-20T00:09:29;96187.78;;;23.00;82.93
36386;BME280;24125;47.482;8.770;2023-07-20T00:12:04;96192.47;;;22.95;82.77
36386;BME280;24125;47.482;8.770;2023-07-20T00:14:37;96197.13;;;22.95;82.97
36386;BME280;24125;47.482;8.770;2023-07-20T00:17:10;96204.94;;;22.93;82.96
36386;BME280;24125;47.482;8.770;2023-07-20T00:19:43;96191.31;;;22.93;83.19
36386;BME280;24125;47.482;8.770;2023-07-20T00:22:16;96192.88;;;22.94;83.34
36386;BME280;24125;47.482;8.770;2023-07-20T00:24:48;96196.38;;;22.94;83.29
36386;BME280;24125;47.482;8.770;2023-07-20T00:27:23;96199.09;;;22.94;83.34
36386;BME280;24125;47.482;8.770;2023-07-20T00:29:55;96204.53;;;22.94;83.23
36386;BME280;24125;47.482;8.770;2023-07-20T00:32:28;96195.59;;;22.94;83.22
36386;BME280;24125;47.482;8.770;2023-07-20T00:35:01;96196.38;;;22.94;83.36
36386;BME280;24125;47.482;8.770;2023-07-20T00:37:34;96194.41;;;22.95;83.32
36386;BME280;24125;47.482;8.770;2023-07-20T00:40:07;96192.88;;;22.94;83.19
36386;BME280;24125;47.482;8.770;2023-07-20T00:42:42;96195.59;;;22.94;83.08
36386;BME280;24125;47.482;8.770;2023-07-20T00:45:14;96196.75;;;22.93;83.00
36386;BME280;24125;47.482;8.770;2023-07-20T00:47:47;96203.38;;;22.92;82.92
36386;BME280;24125;47.482;8.770;2023-07-20T00:50:20;96192.91;;;22.90;82.68
36386;BME280;24125;47.482;8.770;2023-07-20T00:52:53;96189.81;;;22.88;82.79
36386;BME280;24125;47.482;8.770;2023-07-20T00:55:26;96189.44;;;22.86;82.89
36386;BME280;24125;47.482;8.770;2023-07-20T00:58:00;96194.50;;;22.84;82.93
36386;BME280;24125;47.482;8.770;2023-07-20T01:00:33;96199.63;;;22.82;82.94
36386;BME280;24125;47.482;8.770;2023-07-20T01:03:06;96198.06;;;22.81;82.98
36386;BME280;24125;47.482;8.770;2023-07-20T01:05:40;96193.78;;;22.80;83.05
36386;BME280;24125;47.482;8.770;2023-07-20T01:08:15;96191.06;;;22.80;83.02
36386;BME280;24125;47.482;8.770;2023-07-20T01:10:51;96195.75;;;22.80;83.00
36386;BME280;24125;47.482;8.770;2023-07-20T01:13:29;96198.84;;;22.78;82.95
36386;BME280;24125;47.482;8.770;2023-07-20T01:16:04;96191.88;;;22.77;82.84
36386;BME280;24125;47.482;8.770;2023-07-20T01:18:36;96198.47;;;22.76;82.94
36386;BME280;24125;47.482;8.770;2023-07-20T01:21:12;96199.66;;;22.75;82.97
36386;BME280;24125;47.482;8.770;2023-07-20T01:23:52;96198.88;;;22.75;83.12
36386;BME280;24125;47.482;8.770;2023-07-20T01:26:32;96193.44;;;22.75;83.27
36386;BME280;24125;47.482;8.770;2023-07-20T01:32:00;96194.97;;;22.79;83.39
36386;BME280;24125;47.482;8.770;2023-07-20T01:34:35;96188.34;;;22.80;83.40
36386;BME280;24125;47.482;8.770;2023-07-20T01:37:08;96190.25;;;22.83;83.49
36386;BME280;24125;47.482;8.770;2023-07-20T01:39:42;96193.34;;;22.85;83.42
36386;BME280;24125;47.482;8.770;2023-07-20T01:42:15;96196.44;;;22.87;83.37
36386;BME280;24125;47.482;8.770;2023-07-20T01:44:48;96189.81;;;22.88;83.46
36386;BME280;24125;47.482;8.770;2023-07-20T01:47:24;96187.03;;;22.92;83.31
36386;BME280;24125;47.482;8.770;2023-07-20T01:49:57;96183.91;;;22.93;83.29
36386;BME280;24125;47.482;8.770;2023-07-20T01:52:30;96179.25;;;22.94;83.16
36386;BME280;24125;47.482;8.770;2023-07-20T01:55:03;96186.66;;;22.93;83.79
36386;BME280;24125;47.482;8.770;2023-07-20T01:57:37;96192.47;;;22.95;83.31
36386;BME280;24125;47.482;8.770;2023-07-20T02:00:10;96181.56;;;22.95;83.24
36386;BME280;24125;47.482;8.770;2023-07-20T02:02:45;96194.41;;;22.95;83.35
36386;BME280;24125;47.482;8.770;2023-07-20T02:05:18;96192.88;;;22.94;83.16
36386;BME280;24125;47.482;8.770;2023-07-20T02:07:51;96189.03;;;22.91;83.17
36386;BME280;24125;47.482;8.770;2023-07-20T02:10:24;96197.94;;;22.92;83.10
36386;BME280;24125;47.482;8.770;2023-07-20T02:12:57;96200.31;;;22.90;82.95
36386;BME280;24125;47.482;8.770;2023-07-20T02:15:30;96186.31;;;22.88;82.89
36386;BME280;24125;47.482;8.770;2023-07-20T02:18:04;96196.44;;;22.87;82.65
36386;BME280;24125;47.482;8.770;2023-07-20T02:20:37;96192.97;;;22.83;82.52
36386;BME280;24125;47.482;8.770;2023-07-20T02:23:10;96184.09;;;22.79;82.61
36386;BME280;24125;47.482;8.770;2023-07-20T02:25:43;96189.16;;;22.77;82.57
36386;BME280;24125;47.482;8.770;2023-07-20T02:28:16;96193.84;;;22.73;82.59
36386;BME280;24125;47.482;8.770;2023-07-20T02:30:49;96185.28;;;22.71;82.70
36386;BME280;24125;47.482;8.770;2023-07-20T02:33:23;96182.59;;;22.68;82.72
36386;BME280;24125;47.482;8.770;2023-07-20T02:35:56;96184.97;;;22.66;82.75
36386;BME280;24125;47.482;8.770;2023-07-20T02:38:28;96188.88;;;22.65;82.77
36386;BME280;24125;47.482;8.770;2023-07-20T02:41:01;96189.25;;;22.63;82.60
36386;BME280;24125;47.482;8.770;2023-07-20T02:43:34;96190.44;;;22.62;82.79
36386;BME280;24125;47.482;8.770;2023-07-20T02:46:07;96193.56;;;22.61;82.91
36386;BME280;24125;47.482;8.770;2023-07-20T02:48:41;96203.66;;;22.60;83.01
36386;BME280;24125;47.482;8.770;2023-07-20T02:51:14;96208.38;;;22.56;82.87
36386;BME280;24125;47.482;8.770;2023-07-20T02:53:47;96203.72;;;22.53;82.78
36386;BME280;24125;47.482;8.770;2023-07-20T02:56:20;96197.91;;;22.51;82.85
36386;BME280;24125;47.482;8.770;2023-07-20T02:58:54;96206.13;;;22.47;82.64
36386;BME280;24125;47.482;8.770;2023-07-20T03:01:28;96206.13;;;22.44;82.31
36386;BME280;24125;47.482;8.770;2023-07-20T03:04:03;96211.25;;;22.38;82.29
36386;BME280;24125;47.482;8.770;2023-07-20T03:06:36;96216.69;;;22.35;82.24
36386;BME280;24125;47.482;8.770;2023-07-20T03:09:09;96207.44;;;22.29;82.26
36386;BME280;24125;47.482;8.770;2023-07-20T03:11:42;96207.81;;;22.27;82.45
36386;BME280;24125;47.482;8.770;2023-07-20T03:14:14;96205.88;;;22.24;82.54
36386;BME280;24125;47.482;8.770;2023-07-20T03:19:22;96204.00;;;22.21;82.74
36386;BME280;24125;47.482;8.770;2023-07-20T03:21:54;96208.66;;;22.20;82.90
36386;BME280;24125;47.482;8.770;2023-07-20T03:24:27;96209.44;;;22.17;82.75
36386;BME280;24125;47.482;8.770;2023-07-20T03:27:00;96209.44;;;22.17;82.83
36386;BME280;24125;47.482;8.770;2023-07-20T03:29:33;96212.56;;;22.16;82.81
36386;BME280;24125;47.482;8.770;2023-07-20T03:32:06;96207.94;;;22.13;82.66
36386;BME280;24125;47.482;8.770;2023-07-20T03:34:40;96206.38;;;22.12;82.67
36386;BME280;24125;47.482;8.770;2023-07-20T03:37:13;96205.22;;;22.09;82.61
36386;BME280;24125;47.482;8.770;2023-07-20T03:39:46;96209.50;;;22.07;82.58
36386;BME280;24125;47.482;8.770;2023-07-20T03:42:19;96208.72;;;22.06;82.82
36386;BME280;24125;47.482;8.770;2023-07-20T03:44:51;96218.09;;;22.05;82.91
36386;BME280;24125;47.482;8.770;2023-07-20T03:47:24;96215.38;;;22.05;83.08
36386;BME280;24125;47.482;8.770;2023-07-20T03:49:59;96221.56;;;22.06;83.23
36386;BME280;24125;47.482;8.770;2023-07-20T03:52:32;96218.84;;;22.06;83.36
36386;BME280;24125;47.482;8.770;2023-07-20T03:55:05;96216.88;;;22.06;83.66
36386;BME280;24125;47.482;8.770;2023-07-20T03:57:38;96215.72;;;22.07;83.53
36386;BME280;24125;47.482;8.770;2023-07-20T04:00:11;96212.22;;;22.10;83.60
36386;BME280;24125;47.482;8.770;2023-07-20T04:02:46;96217.66;;;22.10;83.75
36386;BME280;24125;47.482;8.770;2023-07-20T04:05:21;96212.94;;;22.14;83.83
36386;BME280;24125;47.482;8.770;2023-07-20T04:07:53;96215.28;;;22.16;83.78
36386;BME280;24125;47.482;8.770;2023-07-20T04:10:26;96222.66;;;22.19;83.85
36386;BME280;24125;47.482;8.770;2023-07-20T04:12:59;96223.03;;;22.21;83.88
36386;BME280;24125;47.482;8.770;2023-07-20T04:15:32;96223.75;;;22.25;83.87
36386;BME280;24125;47.482;8.770;2023-07-20T04:18:05;96234.63;;;22.29;83.84
36386;BME280;24125;47.482;8.770;2023-07-20T04:20:39;96228.00;;;22.30;83.65
36386;BME280;24125;47.482;8.770;2023-07-20T04:23:13;96229.91;;;22.33;83.49
36386;BME280;24125;47.482;8.770;2023-07-20T04:25:46;96223.34;;;22.30;83.37
36386;BME280;24125;47.482;8.770;2023-07-20T04:28:19;96223.34;;;22.30;83.25
36386;BME280;24125;47.482;8.770;2023-07-20T04:30:52;96227.63;;;22.31;83.26
36386;BME280;24125;47.482;8.770;2023-07-20T04:33:25;96228.38;;;22.32;83.25
36386;BME280;24125;47.482;8.770;2023-07-20T04:36:02;96235.00;;;22.31;83.44
36386;BME280;24125;47.482;8.770;2023-07-20T04:38:36;96235.34;;;22.33;83.59
36386;BME280;24125;47.482;8.770;2023-07-20T04:41:08;96235.72;;;22.35;83.63
36386;BME280;24125;47.482;8.770;2023-07-20T04:43:43;96231.44;;;22.37;83.81
36386;BME280;24125;47.482;8.770;2023-07-20T04:46:16;96240.34;;;22.41;83.89
36386;BME280;24125;47.482;8.770;2023-07-20T04:48:51;96237.22;;;22.46;84.14
36386;BME280;24125;47.482;8.770;2023-07-20T04:51:25;96242.22;;;22.51;84.18
36386;BME280;24125;47.482;8.770;2023-07-20T04:53:58;96245.69;;;22.55;84.20
36386;BME280;24125;47.482;8.770;2023-07-20T04:56:30;96243.31;;;22.61;84.11
36386;BME280;24125;47.482;8.770;2023-07-20T04:59:04;96240.56;;;22.65;84.07
36386;BME280;24125;47.482;8.770;2023-07-20T05:01:37;96238.97;;;22.67;83.90
36386;BME280;24125;47.482;8.770;2023-07-20T05:04:10;96243.63;;;22.70;83.91
36386;BME280;24125;47.482;8.770;2023-07-20T05:06:50;96242.44;;;22.75;83.97
36386;BME280;24125;47.482;8.770;2023-07-20T05:09:23;96247.06;;;22.81;84.15
36386;BME280;24125;47.482;8.770;2023-07-20T05:11:56;96247.00;;;22.88;84.44
36386;BME280;24125;47.482;8.770;2023-07-20T05:14:29;96251.59;;;22.95;84.66
36386;BME280;24125;47.482;8.770;2023-07-20T05:17:01;96243.00;;;23.00;84.58
36386;BME280;24125;47.482;8.770;2023-07-20T05:19:34;96249.94;;;23.05;84.39
36386;BME280;24125;47.482;8.770;2023-07-20T05:22:09;96240.53;;;23.09;84.38
36386;BME280;24125;47.482;8.770;2023-07-20T05:24:42;96241.28;;;23.13;84.29
36386;BME280;24125;47.482;8.770;2023-07-20T05:27:15;96239.72;;;23.16;83.86
36386;BME280;24125;47.482;8.770;2023-07-20T05:29:47;96234.63;;;23.18;83.92
36386;BME280;24125;47.482;8.770;2023-07-20T05:32:20;96230.31;;;23.20;83.77
36386;BME280;24125;47.482;8.770;2023-07-20T05:34:53;96234.19;;;23.23;83.81
36386;BME280;24125;47.482;8.770;2023-07-20T05:37:28;96230.66;;;23.26;83.75
36386;BME280;24125;47.482;8.770;2023-07-20T05:40:01;96232.16;;;23.30;83.75
36386;BME280;24125;47.482;8.770;2023-07-20T05:42:34;96229.75;;;23.36;84.09
36386;BME280;24125;47.482;8.770;2023-07-20T05:45:07;96224.59;;;23.45;84.28
36386;BME280;24125;47.482;8.770;2023-07-20T05:47:40;96226.81;;;23.57;85.04
36386;BME280;24125;47.482;8.770;2023-07-20T05:50:12;96225.06;;;23.70;85.15
36386;BME280;24125;47.482;8.770;2023-07-20T05:52:47;96223.00;;;23.82;85.00
36386;BME280;24125;47.482;8.770;2023-07-20T05:55:19;96224.81;;;23.92;84.87
36386;BME280;24125;47.482;8.770;2023-07-20T05:57:52;96228.94;;;24.03;84.84
36386;BME280;24125;47.482;8.770;2023-07-20T06:00:27;96238.13;;;24.13;84.55
36386;BME280;24125;47.482;8.770;2023-07-20T06:03:00;96232.97;;;24.22;84.40
36386;BME280;24125;47.482;8.770;2023-07-20T06:05:33;96230.94;;;24.30;84.14
36386;BME280;24125;47.482;8.770;2023-07-20T06:08:07;96235.91;;;24.35;83.84
36386;BME280;24125;47.482;8.770;2023-07-20T06:10:40;96231.50;;;24.41;83.50
36386;BME280;24125;47.482;8.770;2023-07-20T06:13:16;96231.41;;;24.48;83.47
36386;BME280;24125;47.482;8.770;2023-07-20T06:15:49;96234.44;;;24.54;83.47
36386;BME280;24125;47.482;8.770;2023-07-20T06:18:22;96232.00;;;24.59;83.24
36386;BME280;24125;47.482;8.770;2023-07-20T06:20:55;96227.59;;;24.65;83.16
36386;BME280;24125;47.482;8.770;2023-07-20T06:23:29;96226.38;;;24.70;83.18
36386;BME280;24125;47.482;8.770;2023-07-20T06:26:02;96234.81;;;24.79;84.19
36386;BME280;24125;47.482;8.770;2023-07-20T06:28:35;96227.22;;;24.90;83.42
36386;BME280;24125;47.482;8.770;2023-07-20T06:31:08;96230.19;;;24.99;82.47
36386;BME280;24125;47.482;8.770;2023-07-20T06:33:41;96226.56;;;25.06;83.28
36386;BME280;24125;47.482;8.770;2023-07-20T06:36:15;96223.69;;;25.13;82.88
36386;BME280;24125;47.482;8.770;2023-07-20T06:38:50;96219.69;;;25.17;82.77
36386;BME280;24125;47.482;8.770;2023-07-20T06:41:25;96219.63;;;25.21;82.42
36386;BME280;24125;47.482;8.770;2023-07-20T06:44:01;96232.03;;;25.26;81.69
36386;BME280;24125;47.482;8.770;2023-07-20T06:46:34;96226.00;;;25.34;82.77
36386;BME280;24125;47.482;8.770;2023-07-20T06:49:07;96225.81;;;25.45;83.64
36386;BME280;24125;47.482;8.770;2023-07-20T06:51:43;96227.91;;;25.57;83.08
36386;BME280;24125;47.482;8.770;2023-07-20T06:54:17;96237.91;;;25.67;82.61
36386;BME280;24125;47.482;8.770;2023-07-20T06:56:54;96233.41;;;25.77;84.33
36386;BME280;24125;47.482;8.770;2023-07-20T06:59:30;96236.66;;;25.88;84.31
36386;BME280;24125;47.482;8.770;2023-07-20T07:02:03;96241.13;;;25.98;84.70
36386;BME280;24125;47.482;8.770;2023-07-20T07:04:36;96235.09;;;26.07;82.19
36386;BME280;24125;47.482;8.770;2023-07-20T07:07:09;96234.16;;;26.13;82.99
36386;BME280;24125;47.482;8.770;2023-07-20T07:09:43;96227.84;;;26.16;81.94
36386;BME280;24125;47.482;8.770;2023-07-20T07:12:16;96228.53;;;26.20;79.23
36386;BME280;24125;47.482;8.770;2023-07-20T07:14:49;96231.19;;;26.24;80.03
36386;BME280;24125;47.482;8.770;2023-07-20T07:17:22;96239.66;;;26.29;80.90
36386;BME280;24125;47.482;8.770;2023-07-20T07:19:55;96241.50;;;26.36;81.22
36386;BME280;24125;47.482;8.770;2023-07-20T07:22:29;96238.22;;;26.41;81.73
36386;BME280;24125;47.482;8.770;2023-07-20T07:25:04;96227.63;;;26.43;72.27
36386;BME280;24125;47.482;8.770;2023-07-20T07:27:36;96236.19;;;26.45;78.61
36386;BME280;24125;47.482;8.770;2023-07-20T07:30:10;96244.72;;;26.47;79.04
36386;BME280;24125;47.482;8.770;2023-07-20T07:32:43;96240.38;;;26.50;79.89
36386;BME280;24125;47.482;8.770;2023-07-20T07:35:15;96239.97;;;26.51;80.74
36386;BME280;24125;47.482;8.770;2023-07-20T07:37:48;96237.22;;;26.51;79.26
36386;BME280;24125;47.482;8.770;2023-07-20T07:40:41;96235.25;;;26.52;79.41
36386;BME280;24125;47.482;8.770;2023-07-20T07:43:14;96229.00;;;26.51;81.44
36386;BME280;24125;47.482;8.770;2023-07-20T07:45:47;96222.75;;;26.51;79.93
36386;BME280;24125;47.482;8.770;2023-07-20T07:48:20;96223.59;;;26.48;80.59
36386;BME280;24125;47.482;8.770;2023-07-20T07:50:53;96223.28;;;26.46;79.14
36386;BME280;24125;47.482;8.770;2023-07-20T07:53:26;96231.56;;;26.42;80.26
36386;BME280;24125;47.482;8.770;2023-07-20T07:56:01;96225.31;;;26.42;79.77
36386;BME280;24125;47.482;8.770;2023-07-20T07:58:34;96224.13;;;26.43;79.58
36386;BME280;24125;47.482;8.770;2023-07-20T08:01:07;96229.06;;;26.48;78.78
36386;BME280;24125;47.482;8.770;2023-07-20T08:03:40;96223.78;;;26.57;81.69
36386;BME280;24125;47.482;8.770;2023-07-20T08:06:13;96228.22;;;26.67;81.52
36386;BME280;24125;47.482;8.770;2023-07-20T08:08:46;96226.78;;;26.79;81.21
36386;BME280;24125;47.482;8.770;2023-07-20T08:11:21;96218.28;;;26.89;82.57
36386;BME280;24125;47.482;8.770;2023-07-20T08:13:54;96222.72;;;26.99;84.39
36386;BME280;24125;47.482;8.770;2023-07-20T08:16:26;96220.16;;;27.09;81.61
36386;BME280;24125;47.482;8.770;2023-07-20T08:19:00;96219.09;;;27.19;80.72
36386;BME280;24125;47.482;8.770;2023-07-20T08:21:33;96206.31;;;27.28;81.50
36386;BME280;24125;47.482;8.770;2023-07-20T08:24:06;96210.38;;;27.36;82.14
36386;BME280;24125;47.482;8.770;2023-07-20T08:26:41;96208.22;;;27.44;80.57
36386;BME280;24125;47.482;8.770;2023-07-20T08:29:14;96205.72;;;27.50;83.13
36386;BME280;24125;47.482;8.770;2023-07-20T08:31:47;96214.63;;;27.54;80.78
36386;BME280;24125;47.482;8.770;2023-07-20T08:34:20;96208.72;;;27.55;81.51
36386;BME280;24125;47.482;8.770;2023-07-20T08:37:02;96218.81;;;27.58;82.74
36386;BME280;24125;47.482;8.770;2023-07-20T08:39:35;96210.13;;;27.60;83.53
36386;BME280;24125;47.482;8.770;2023-07-20T08:42:10;96213.22;;;27.62;81.38
36386;BME280;24125;47.482;8.770;2023-07-20T08:44:42;96205.34;;;27.64;81.36
36386;BME280;24125;47.482;8.770;2023-07-20T08:47:16;96213.91;;;27.66;80.96
36386;BME280;24125;47.482;8.770;2023-07-20T08:49:50;96210.81;;;27.64;79.74
36386;BME280;24125;47.482;8.770;2023-07-20T08:52:23;96203.47;;;27.61;80.10
36386;BME280;24125;47.482;8.770;2023-07-20T08:54:56;96203.56;;;27.57;79.26
36386;BME280;24125;47.482;8.770;2023-07-20T08:57:30;96199.72;;;27.55;79.13
36386;BME280;24125;47.482;8.770;2023-07-20T09:00:05;96195.53;;;27.50;79.11
36386;BME280;24125;47.482;8.770;2023-07-20T09:02:41;96195.19;;;27.48;82.43
36386;BME280;24125;47.482;8.770;2023-07-20T09:05:15;96189.78;;;27.45;81.31
36386;BME280;24125;47.482;8.770;2023-07-20T09:07:47;96185.19;;;27.41;80.07
36386;BME280;24125;47.482;8.770;2023-07-20T09:10:21;96187.59;;;27.39;81.28
36386;BME280;24125;47.482;8.770;2023-07-20T09:12:55;96184.94;;;27.36;81.21
36386;BME280;24125;47.482;8.770;2023-07-20T09:15:29;96182.63;;;27.34;79.85
36386;BME280;24125;47.482;8.770;2023-07-20T09:18:01;96187.81;;;27.32;80.75
36386;BME280;24125;47.482;8.770;2023-07-20T09:20:35;96180.78;;;27.31;81.12
36386;BME280;24125;47.482;8.770;2023-07-20T09:23:08;96180.78;;;27.31;80.20
36386;BME280;24125;47.482;8.770;2023-07-20T09:25:41;96173.75;;;27.30;81.61
36386;BME280;24125;47.482;8.770;2023-07-20T09:28:15;96164.75;;;27.30;81.21
36386;BME280;24125;47.482;8.770;2023-07-20T09:30:49;96166.31;;;27.31;81.39
36386;BME280;24125;47.482;8.770;2023-07-20T09:33:24;96158.41;;;27.33;81.43
36386;BME280;24125;47.482;8.770;2023-07-20T09:36:01;96167.72;;;27.35;80.47
36386;BME280;24125;47.482;8.770;2023-07-20T09:38:54;96163.28;;;27.41;81.32
36386;BME280;24125;47.482;8.770;2023-07-20T09:41:30;96161.19;;;27.46;81.12
36386;BME280;24125;47.482;8.770;2023-07-20T09:44:18;96157.88;;;27.51;81.44
36386;BME280;24125;47.482;8.770;2023-07-20T09:46:54;96159.28;;;27.59;84.06
36386;BME280;24125;47.482;8.770;2023-07-20T09:49:30;96159.38;;;27.68;83.42
36386;BME280;24125;47.482;8.770;2023-07-20T09:52:23;96150.72;;;27.82;83.63
36386;BME280;24125;47.482;8.770;2023-07-20T09:54:59;96156.53;;;27.97;83.32
36386;BME280;24125;47.482;8.770;2023-07-20T09:57:33;96149.84;;;28.10;88.30
36386;BME280;24125;47.482;8.770;2023-07-20T10:00:08;96155.00;;;28.21;82.88
36386;BME280;24125;47.482;8.770;2023-07-20T10:02:47;96160.25;;;28.28;81.80
36386;BME280;24125;47.482;8.770;2023-07-20T10:05:22;96157.31;;;28.35;80.62
36386;BME280;24125;47.482;8.770;2023-07-20T10:07:56;96152.69;;;28.45;84.41
36386;BME280;24125;47.482;8.770;2023-07-20T10:10:33;96150.03;;;28.54;82.48
36386;BME280;24125;47.482;8.770;2023-07-20T10:13:06;96143.38;;;28.64;82.17
36386;BME280;24125;47.482;8.770;2023-07-20T10:15:43;96145.38;;;28.76;82.93
36386;BME280;24125;47.482;8.770;2023-07-20T10:18:21;96133.69;;;28.85;81.61
36386;BME280;24125;47.482;8.770;2023-07-20T10:20:56;96133.09;;;28.90;81.06
36386;BME280;24125;47.482;8.770;2023-07-20T10:23:32;96132.56;;;28.95;82.00
36386;BME280;24125;47.482;8.770;2023-07-20T10:26:05;96123.41;;;28.98;78.85
36386;BME280;24125;47.482;8.770;2023-07-20T10:28:40;96127.13;;;29.04;79.67
36386;BME280;24125;47.482;8.770;2023-07-20T10:31:14;96118.19;;;29.13;81.51
36386;BME280;24125;47.482;8.770;2023-07-20T10:33:48;96119.31;;;29.24;83.12
36386;BME280;24125;47.482;8.770;2023-07-20T10:36:24;96123.22;;;29.36;83.63
36386;BME280;24125;47.482;8.770;2023-07-20T10:39:00;96117.66;;;29.49;84.25
36386;BME280;24125;47.482;8.770;2023-07-20T10:41:33;96120.44;;;29.58;82.18
36386;BME280;24125;47.482;8.770;2023-07-20T10:44:07;96123.81;;;29.62;78.14
36386;BME280;24125;47.482;8.770;2023-07-20T10:46:45;96114.34;;;29.63;81.32
36386;BME280;24125;47.482;8.770;2023-07-20T10:49:19;96107.78;;;29.60;83.10
36386;BME280;24125;47.482;8.770;2023-07-20T10:51:58;96104.41;;;29.56;77.73
36386;BME280;24125;47.482;8.770;2023-07-20T10:54:34;96101.00;;;29.52;78.22
36386;BME280;24125;47.482;8.770;2023-07-20T10:57:23;96101.59;;;29.47;78.63
36386;BME280;24125;47.482;8.770;2023-07-20T11:00:09;96092.09;;;29.39;79.35
36386;BME280;24125;47.482;8.770;2023-07-20T11:02:55;96094.31;;;29.32;76.02
36386;BME280;24125;47.482;8.770;2023-07-20T11:05:31;96091.38;;;29.26;77.79
36386;BME280;24125;47.482;8.770;2023-07-20T11:08:05;96082.78;;;29.24;79.14
36386;BME280;24125;47.482;8.770;2023-07-20T11:10:38;96082.78;;;29.24;79.04
36386;BME280;24125;47.482;8.770;2023-07-20T11:13:19;96082.34;;;29.25;78.12
36386;BME280;24125;47.482;8.770;2023-07-20T11:16:01;96081.13;;;29.26;79.04
36386;BME280;24125;47.482;8.770;2023-07-20T11:18:36;96079.03;;;29.31;79.30
36386;BME280;24125;47.482;8.770;2023-07-20T11:21:12;96081.31;;;29.32;80.01
36386;BME280;24125;47.482;8.770;2023-07-20T11:23:44;96082.84;;;29.33;82.62
36386;BME280;24125;47.482;8.770;2023-07-20T11:26:19;96080.09;;;29.33;80.65
36386;BME280;24125;47.482;8.770;2023-07-20T11:28:52;96077.81;;;29.32;79.84
36386;BME280;24125;47.482;8.770;2023-07-20T11:31:25;96075.50;;;29.30;79.63
36386;BME280;24125;47.482;8.770;2023-07-20T11:33:59;96081.47;;;29.28;79.59
36386;BME280;24125;47.482;8.770;2023-07-20T11:36:35;96072.88;;;29.26;82.22
36386;BME280;24125;47.482;8.770;2023-07-20T11:39:11;96077.28;;;29.24;80.15
36386;BME280;24125;47.482;8.770;2023-07-20T11:41:45;96070.28;;;29.23;79.16
36386;BME280;24125;47.482;8.770;2023-07-20T11:44:19;96066.31;;;29.24;82.41
36386;BME280;24125;47.482;8.770;2023-07-20T11:47:03;96058.06;;;29.24;80.78
36386;BME280;24125;47.482;8.770;2023-07-20T11:49:37;96065.22;;;29.21;79.57
36386;BME280;24125;47.482;8.770;2023-07-20T11:52:11;96054.38;;;29.18;80.61
36386;BME280;24125;47.482;8.770;2023-07-20T11:54:44;96041.22;;;29.13;76.66
36386;BME280;24125;47.482;8.770;2023-07-20T11:57:20;96047.28;;;29.08;78.08
36386;BME280;24125;47.482;8.770;2023-07-20T11:59:53;96047.09;;;29.02;78.57
36386;BME280;24125;47.482;8.770;2023-07-20T12:02:29;96037.44;;;28.98;78.18
36386;BME280;24125;47.482;8.770;2023-07-20T12:05:04;96039.13;;;28.95;78.33
36386;BME280;24125;47.482;8.770;2023-07-20T12:07:37;96040.66;;;28.96;82.43
36386;BME280;24125;47.482;8.770;2023-07-20T12:10:11;96035.59;;;28.95;82.14
36386;BME280;24125;47.482;8.770;2023-07-20T12:12:44;96031.31;;;28.94;81.35
36386;BME280;24125;47.482;8.770;2023-07-20T12:15:20;96027.81;;;28.93;78.72
36386;BME280;24125;47.482;8.770;2023-07-20T12:17:53;96025.81;;;28.94;78.70
36386;BME280;24125;47.482;8.770;2023-07-20T12:20:28;96023.84;;;28.94;80.85
36386;BME280;24125;47.482;8.770;2023-07-20T12:23:02;96014.84;;;28.94;80.60
36386;BME280;24125;47.482;8.770;2023-07-20T12:25:37;96007.03;;;28.92;78.72
36386;BME280;24125;47.482;8.770;2023-07-20T12:28:11;96010.66;;;28.89;80.95
36386;BME280;24125;47.482;8.770;2023-07-20T12:30:45;96013.56;;;28.85;80.04
36386;BME280;24125;47.482;8.770;2023-07-20T12:33:19;96008.97;;;28.82;78.81
36386;BME280;24125;47.482;8.770;2023-07-20T12:35:53;96001.94;;;28.81;81.72
36386;BME280;24125;47.482;8.770;2023-07-20T12:38:29;95998.56;;;28.77;82.26
36386;BME280;24125;47.482;8.770;2023-07-20T12:41:03;96004.06;;;28.77;86.38
36386;BME280;24125;47.482;8.770;2023-07-20T12:43:36;95996.56;;;28.78;88.08
36386;BME280;24125;47.482;8.770;2023-07-20T12:46:09;95999.66;;;28.80;86.03
36386;BME280;24125;47.482;8.770;2023-07-20T12:48:43;95996.91;;;28.80;85.91
36386;BME280;24125;47.482;8.770;2023-07-20T12:51:21;96005.44;;;28.82;90.14
36386;BME280;24125;47.482;8.770;2023-07-20T12:53:54;95996.75;;;28.83;89.98
36386;BME280;24125;47.482;8.770;2023-07-20T12:56:27;95992.03;;;28.84;87.63
36386;BME280;24125;47.482;8.770;2023-07-20T12:59:03;95989.16;;;28.87;91.31
36386;BME280;24125;47.482;8.770;2023-07-20T13:01:37;95984.44;;;28.88;90.36
36386;BME280;24125;47.482;8.770;2023-07-20T13:04:12;95988.41;;;28.87;88.06
36386;BME280;24125;47.482;8.770;2023-07-20T13:06:47;95985.19;;;28.88;90.99
36386;BME280;24125;47.482;8.770;2023-07-20T13:09:19;95982.47;;;28.88;88.83
36386;BME280;24125;47.482;8.770;2023-07-20T13:11:52;95976.97;;;28.88;88.77
36386;BME280;24125;47.482;8.770;2023-07-20T13:14:25;95968.72;;;28.88;89.01
36386;BME280;24125;47.482;8.770;2023-07-20T13:16:58;95968.25;;;28.90;88.00
36386;BME280;24125;47.482;8.770;2023-07-20T13:19:31;95961.09;;;28.93;87.29
36386;BME280;24125;47.482;8.770;2023-07-20T13:22:05;95960.97;;;28.96;88.40
36386;BME280;24125;47.482;8.770;2023-07-20T13:24:38;95958.72;;;29.04;88.19
36386;BME280;24125;47.482;8.770;2023-07-20T13:27:11;95960.72;;;29.12;88.06
36386;BME280;24125;47.482;8.770;2023-07-20T13:29:44;95958.31;;;29.23;87.38
36386;BME280;24125;47.482;8.770;2023-07-20T13:32:19;95959.88;;;29.34;88.47
36386;BME280;24125;47.482;8.770;2023-07-20T13:34:52;95965.00;;;29.44;89.62
36386;BME280;24125;47.482;8.770;2023-07-20T13:37:26;95956.78;;;29.53;89.03
36386;BME280;24125;47.482;8.770;2023-07-20T13:39:59;95954.50;;;29.61;86.93
36386;BME280;24125;47.482;8.770;2023-07-20T13:42:33;95946.72;;;29.69;86.99